createdAt,value
2018-09-25T00:00:44.927Z,3.60
2018-09-25T00:03:18.822Z,3.90
2018-09-25T00:05:52.683Z,3.90
2018-09-25T00:11:15.623Z,3.90
2018-09-25T00:13:49.332Z,3.90
2018-09-25T00:16:23.355Z,3.90
2018-09-25T00:18:57.140Z,3.90
2018-09-25T00:21:30.965Z,3.70
2018-09-25T00:24:04.662Z,4.10
2018-09-25T00:26:38.462Z,4.20
2018-09-25T00:29:12.182Z,4.10
2018-09-25T00:31:45.958Z,4.10
2018-09-25T00:34:19.816Z,4.10
2018-09-25T00:36:53.689Z,4.10
2018-09-25T00:39:27.454Z,4.10
2018-09-25T00:42:01.338Z,4.10
2018-09-25T00:44:35.493Z,4.10
2018-09-25T00:47:12.041Z,4.00
2018-09-25T00:49:45.968Z,4.00
2018-09-25T00:52:19.949Z,3.70
2018-09-25T00:54:53.781Z,4.10
2018-09-25T00:57:27.835Z,4.00
2018-09-25T01:00:01.752Z,4.10
2018-09-25T01:02:35.679Z,4.00
2018-09-25T01:05:09.511Z,4.00
2018-09-25T01:07:43.450Z,4.00
2018-09-25T01:10:17.378Z,3.90
2018-09-25T01:12:51.262Z,3.90
2018-09-25T01:15:26.377Z,3.80
2018-09-25T01:18:00.473Z,3.80
2018-09-25T01:20:34.182Z,3.80
2018-09-25T01:23:07.978Z,3.80
2018-09-25T01:25:41.828Z,3.70
2018-09-25T01:28:15.763Z,3.90
2018-09-25T01:30:49.574Z,3.90
2018-09-25T01:33:23.438Z,4.00
2018-09-25T01:36:07.124Z,3.80
2018-09-25T01:38:40.946Z,4.10
2018-09-25T01:41:14.542Z,4.20
2018-09-25T01:43:48.430Z,4.20
2018-09-25T01:46:22.474Z,4.30
2018-09-25T01:48:56.294Z,4.40
2018-09-25T01:51:29.902Z,4.40
2018-09-25T01:54:03.841Z,4.50
2018-09-25T01:56:37.518Z,4.50
2018-09-25T01:59:11.674Z,4.50
2018-09-25T02:01:45.600Z,4.60
2018-09-25T02:04:19.589Z,4.60
2018-09-25T02:06:53.395Z,4.60
2018-09-25T02:09:27.296Z,4.70
2018-09-25T02:12:01.010Z,4.70
2018-09-25T02:14:34.842Z,4.70
2018-09-25T02:17:08.599Z,4.80
2018-09-25T02:19:42.367Z,4.80
2018-09-25T02:22:16.166Z,4.80
2018-09-25T02:24:49.809Z,4.90
2018-09-25T02:27:23.583Z,4.90
2018-09-25T02:29:57.467Z,4.90
2018-09-25T02:32:31.261Z,5.00
2018-09-25T02:35:04.912Z,5.00
2018-09-25T02:37:38.691Z,5.10
2018-09-25T02:40:12.387Z,5.10
2018-09-25T02:42:46.187Z,5.10
2018-09-25T02:45:20.191Z,5.10
2018-09-25T02:47:53.967Z,5.20
2018-09-25T02:50:27.869Z,5.20
2018-09-25T02:53:01.715Z,5.30
2018-09-25T02:55:35.594Z,5.40
2018-09-25T02:58:09.163Z,5.50
2018-09-25T03:00:42.751Z,5.60
2018-09-25T03:03:16.322Z,5.70
2018-09-25T03:05:50.042Z,5.80
2018-09-25T03:08:23.736Z,5.90
2018-09-25T03:10:57.438Z,5.90
2018-09-25T03:13:32.875Z,5.90
2018-09-25T03:16:06.739Z,6.00
2018-09-25T03:18:40.541Z,6.00
2018-09-25T03:21:14.289Z,6.00
2018-09-25T03:23:48.254Z,6.10
2018-09-25T03:26:22.051Z,6.10
2018-09-25T03:28:55.839Z,6.10
2018-09-25T03:31:29.658Z,6.10
2018-09-25T03:34:03.450Z,6.10
2018-09-25T03:36:37.287Z,6.10
2018-09-25T03:39:13.365Z,6.10
2018-09-25T03:41:47.168Z,6.10
2018-09-25T03:44:20.987Z,6.20
2018-09-25T03:46:54.886Z,6.20
2018-09-25T03:49:28.698Z,6.20
2018-09-25T03:52:02.330Z,6.30
2018-09-25T03:54:35.900Z,6.30
2018-09-25T03:57:09.895Z,6.40
2018-09-25T03:59:43.766Z,6.40
2018-09-25T04:02:17.540Z,6.40
2018-09-25T04:04:51.368Z,6.40
2018-09-25T04:07:25.123Z,6.40
2018-09-25T04:09:59.022Z,6.40
2018-09-25T04:12:32.792Z,6.50
2018-09-25T04:15:06.854Z,6.50
2018-09-25T04:17:40.757Z,6.50
2018-09-25T04:20:14.506Z,6.60
2018-09-25T04:22:48.407Z,6.60
2018-09-25T04:25:22.242Z,6.70
2018-09-25T04:27:56.262Z,6.80
2018-09-25T04:30:30.071Z,6.80
2018-09-25T04:33:03.899Z,6.80
2018-09-25T04:35:37.671Z,6.80
2018-09-25T04:38:11.819Z,6.80
2018-09-25T04:40:45.436Z,6.80
2018-09-25T04:43:19.387Z,6.80
2018-09-25T04:45:53.123Z,6.80
2018-09-25T04:48:26.943Z,6.80
2018-09-25T04:51:00.847Z,6.80
2018-09-25T04:53:35.616Z,6.70
2018-09-25T04:56:09.398Z,6.70
2018-09-25T04:58:43.374Z,6.60
2018-09-25T05:01:17.231Z,6.60
2018-09-25T05:03:50.880Z,6.50
2018-09-25T05:06:24.666Z,6.50
2018-09-25T05:08:58.402Z,6.40
2018-09-25T05:11:32.079Z,6.30
2018-09-25T05:14:05.827Z,6.30
2018-09-25T05:16:39.517Z,6.20
2018-09-25T05:19:13.450Z,6.20
2018-09-25T05:21:47.254Z,6.20
2018-09-25T05:24:21.139Z,6.10
2018-09-25T05:26:54.843Z,6.10
2018-09-25T05:29:28.602Z,6.10
2018-09-25T05:32:02.266Z,6.10
2018-09-25T05:34:36.048Z,6.10
2018-09-25T05:37:09.771Z,6.20
2018-09-25T05:39:43.525Z,6.20
2018-09-25T05:42:17.253Z,6.20
2018-09-25T05:44:51.102Z,6.20
2018-09-25T05:47:24.853Z,6.20
2018-09-25T05:49:58.708Z,6.20
2018-09-25T05:52:32.379Z,6.20
2018-09-25T05:55:06.538Z,6.20
2018-09-25T05:57:40.309Z,6.20
2018-09-25T06:00:14.030Z,6.20
2018-09-25T06:02:47.775Z,6.30
2018-09-25T06:05:21.706Z,6.40
2018-09-25T06:07:55.494Z,6.50
2018-09-25T06:10:29.316Z,6.70
2018-09-25T06:13:03.043Z,6.80
2018-09-25T06:15:36.868Z,6.90
2018-09-25T06:18:10.690Z,7.10
2018-09-25T06:20:44.443Z,7.20
2018-09-25T06:23:18.158Z,7.30
2018-09-25T06:25:52.062Z,7.40
2018-09-25T06:28:25.944Z,7.50
2018-09-25T06:30:59.876Z,7.70
2018-09-25T06:33:33.475Z,7.90
2018-09-25T06:36:07.411Z,8.20
2018-09-25T06:38:41.387Z,8.40
2018-09-25T06:41:15.291Z,8.60
2018-09-25T06:43:49.001Z,8.80
2018-09-25T06:46:23.182Z,8.90
2018-09-25T06:48:56.898Z,9.00
2018-09-25T06:51:30.825Z,9.00
2018-09-25T06:54:04.553Z,9.10
2018-09-25T06:56:38.438Z,9.10
2018-09-25T06:59:12.306Z,9.20
2018-09-25T07:01:45.898Z,9.20
2018-09-25T07:04:19.646Z,9.30
2018-09-25T07:06:53.482Z,9.30
2018-09-25T07:09:27.204Z,9.30
2018-09-25T07:12:00.980Z,9.30
2018-09-25T07:14:34.734Z,9.40
2018-09-25T07:17:08.545Z,9.40
2018-09-25T07:31:03.841Z,9.70
2018-09-25T07:33:37.664Z,9.70
2018-09-25T07:36:11.394Z,9.70
2018-09-25T07:38:45.064Z,9.80
2018-09-25T07:41:18.681Z,9.80
2018-09-25T07:43:56.785Z,9.90
2018-09-25T07:46:30.673Z,9.90
2018-09-25T07:49:04.559Z,10.00
2018-09-25T07:51:38.244Z,10.10
2018-09-25T07:54:11.923Z,10.10
2018-09-25T07:56:45.658Z,10.20
2018-09-25T07:59:19.349Z,10.30
2018-09-25T08:01:53.037Z,10.40
2018-09-25T08:04:26.623Z,10.40
2018-09-25T08:07:00.621Z,10.50
2018-09-25T08:09:34.226Z,10.50
2018-09-25T08:12:07.988Z,10.60
2018-09-25T08:14:41.939Z,10.60
2018-09-25T08:17:15.725Z,10.70
2018-09-25T08:19:49.435Z,10.80
2018-09-25T08:22:23.175Z,10.80
2018-09-25T08:24:56.723Z,10.90
2018-09-25T08:27:30.411Z,10.90
2018-09-25T08:30:04.279Z,10.90
2018-09-25T08:32:38.103Z,11.00
2018-09-25T08:35:11.836Z,11.10
2018-09-25T08:37:45.671Z,11.20
2018-09-25T08:40:19.541Z,11.30
2018-09-25T08:42:53.641Z,11.40
2018-09-25T08:45:27.373Z,11.40
2018-09-25T08:48:01.034Z,11.50
2018-09-25T08:50:34.854Z,11.60
2018-09-25T08:53:08.655Z,11.70
2018-09-25T08:55:42.481Z,11.80
2018-09-25T08:58:16.248Z,12.00
2018-09-25T09:00:50.174Z,12.00
2018-09-25T09:23:21.264Z,12.20
2018-09-25T09:25:55.027Z,12.10
2018-09-25T09:28:28.938Z,12.10
2018-09-25T09:31:02.701Z,12.20
2018-09-25T09:33:36.433Z,12.40
2018-09-25T09:36:10.213Z,12.60
2018-09-25T09:38:44.227Z,12.80
2018-09-25T09:41:18.218Z,13.00
2018-09-25T09:43:52.071Z,13.20
2018-09-25T09:46:26.062Z,13.10
2018-09-25T09:48:59.868Z,13.00
2018-09-25T09:51:33.570Z,12.90
2018-09-25T09:54:07.230Z,12.80
2018-09-25T09:56:41.118Z,12.80
2018-09-25T09:59:15.075Z,12.90
2018-09-25T10:01:48.922Z,13.00
2018-09-25T10:04:22.666Z,13.30
2018-09-25T10:06:56.465Z,13.50
2018-09-25T10:09:30.330Z,13.60
2018-09-25T10:12:04.169Z,13.50
2018-09-25T10:14:37.779Z,13.40
2018-09-25T10:17:11.742Z,13.30
2018-09-25T10:19:45.566Z,13.20
2018-09-25T10:22:19.260Z,13.30
2018-09-25T10:24:52.992Z,13.30
2018-09-25T10:27:26.781Z,13.10
2018-09-25T10:30:00.766Z,12.90
2018-09-25T10:32:34.418Z,12.70
2018-09-25T10:35:08.131Z,12.70
2018-09-25T10:37:41.703Z,12.90
2018-09-25T10:40:15.868Z,13.20
2018-09-25T10:42:50.426Z,13.30
2018-09-25T10:45:25.095Z,13.30
2018-09-25T10:47:59.914Z,13.50
2018-09-25T10:50:34.879Z,13.70
2018-09-25T10:53:08.598Z,13.80
2018-09-25T10:55:42.370Z,13.80
2018-09-25T10:58:16.011Z,13.80
2018-09-25T11:00:49.758Z,13.70
2018-09-25T11:03:23.567Z,13.80
2018-09-25T11:05:57.567Z,13.90
2018-09-25T11:08:31.390Z,13.90
2018-09-25T11:11:05.280Z,13.80
2018-09-25T11:13:39.070Z,13.70
2018-09-25T11:16:13.143Z,13.70
2018-09-25T11:18:46.718Z,13.80
2018-09-25T11:21:20.656Z,13.80
2018-09-25T11:23:54.354Z,13.80
2018-09-25T11:26:28.238Z,13.80
2018-09-25T11:29:02.038Z,13.90
2018-09-25T11:31:35.786Z,14.00
2018-09-25T11:34:09.682Z,14.20
2018-09-25T11:36:43.313Z,14.30
2018-09-25T11:39:17.113Z,14.30
2018-09-25T11:41:50.968Z,14.10
2018-09-25T11:44:24.763Z,14.00
2018-09-25T11:46:58.550Z,13.90
2018-09-25T11:49:32.138Z,14.00
2018-09-25T11:52:05.818Z,14.10
2018-09-25T11:54:39.494Z,14.20
2018-09-25T11:57:13.167Z,14.30
2018-09-25T11:59:46.832Z,14.30
2018-09-25T12:02:20.638Z,14.30
2018-09-25T12:04:54.466Z,14.40
2018-09-25T12:07:28.181Z,14.50
2018-09-25T12:10:02.113Z,14.60
2018-09-25T12:12:35.851Z,14.60
2018-09-25T12:15:09.570Z,14.50
2018-09-25T12:17:43.390Z,14.40
2018-09-25T12:20:17.279Z,14.30
2018-09-25T12:22:51.154Z,14.20
2018-09-25T12:25:24.922Z,14.10
2018-09-25T12:27:59.587Z,14.10
2018-09-25T12:30:33.491Z,14.10
2018-09-25T12:33:07.479Z,14.20
2018-09-25T12:35:41.266Z,14.10
2018-09-25T12:38:14.986Z,14.10
2018-09-25T12:40:48.739Z,14.00
2018-09-25T12:43:22.419Z,14.00
2018-09-25T12:45:56.327Z,14.00
2018-09-25T12:48:30.232Z,13.90
2018-09-25T12:51:03.956Z,13.90
2018-09-25T12:53:37.574Z,13.90
2018-09-25T12:56:11.279Z,13.90
2018-09-25T12:58:44.941Z,13.90
2018-09-25T13:01:18.810Z,13.90
2018-09-25T13:03:52.691Z,13.90
2018-09-25T13:06:26.393Z,14.00
2018-09-25T13:09:00.137Z,14.10
2018-09-25T13:11:34.108Z,14.10
2018-09-25T13:14:07.919Z,14.10
2018-09-25T13:16:41.780Z,14.10
2018-09-25T13:19:15.574Z,14.20
2018-09-25T13:21:49.327Z,14.20
2018-09-25T13:24:23.114Z,14.20
2018-09-25T13:26:56.942Z,14.30
2018-09-25T13:29:31.822Z,14.30
2018-09-25T13:32:05.507Z,14.30
2018-09-25T13:34:39.266Z,14.40
2018-09-25T13:37:13.013Z,14.40
2018-09-25T13:39:46.899Z,14.40
2018-09-25T13:42:20.744Z,14.40
2018-09-25T13:44:54.658Z,14.40
2018-09-25T13:47:28.368Z,14.40
2018-09-25T13:50:02.327Z,14.30
2018-09-25T13:52:36.054Z,14.40
2018-09-25T13:55:09.950Z,14.50
2018-09-25T13:57:43.778Z,14.50
2018-09-25T14:00:17.441Z,14.50
2018-09-25T14:02:51.453Z,14.50
2018-09-25T14:05:25.179Z,14.40
2018-09-25T14:07:59.323Z,14.50
2018-09-25T14:10:33.079Z,14.40
2018-09-25T14:13:06.798Z,14.40
2018-09-25T14:15:40.594Z,14.30
2018-09-25T14:18:14.471Z,14.20
2018-09-25T14:20:48.229Z,14.20
2018-09-25T14:23:21.862Z,14.10
2018-09-25T14:25:55.536Z,14.00
2018-09-25T14:28:29.072Z,13.80
2018-09-25T14:31:02.915Z,13.70
2018-09-25T14:33:37.116Z,13.50
2018-09-25T14:36:10.927Z,13.50
2018-09-25T14:38:44.572Z,13.50
2018-09-25T14:41:18.361Z,13.50
2018-09-25T14:43:52.181Z,13.50
2018-09-25T14:46:26.074Z,13.50
2018-09-25T14:48:59.910Z,13.50
2018-09-25T14:51:33.605Z,13.50
2018-09-25T14:54:07.414Z,13.40
2018-09-25T14:56:41.799Z,13.30
2018-09-25T14:59:15.539Z,13.30
2018-09-25T15:01:49.261Z,13.20
2018-09-25T15:04:22.834Z,13.10
2018-09-25T15:06:56.567Z,13.10
2018-09-25T15:09:30.231Z,13.00
2018-09-25T15:12:04.025Z,13.00
2018-09-25T15:14:37.872Z,12.90
2018-09-25T15:17:11.859Z,12.90
2018-09-25T15:19:45.746Z,12.80
2018-09-25T15:22:19.939Z,12.80
2018-09-25T15:24:53.282Z,12.80
2018-09-25T15:27:29.487Z,12.80
2018-09-25T15:30:03.593Z,12.80
2018-09-25T15:32:39.097Z,12.80
2018-09-25T15:35:13.879Z,12.70
2018-09-25T15:37:48.522Z,12.70
2018-09-25T15:40:27.711Z,12.70
2018-09-25T15:43:02.677Z,12.60
2018-09-25T15:45:36.909Z,12.60
2018-09-25T15:48:12.527Z,12.50
2018-09-25T15:50:47.028Z,12.50
2018-09-25T15:53:33.570Z,12.50
2018-09-25T15:56:07.703Z,12.50
2018-09-25T15:58:41.426Z,12.50
2018-09-25T16:01:15.126Z,12.40
2018-09-25T16:03:48.682Z,12.40
2018-09-25T16:06:22.379Z,12.30
2018-09-25T16:08:56.030Z,12.20
2018-09-25T16:11:29.742Z,12.20
2018-09-25T16:14:03.597Z,12.10
2018-09-25T16:16:37.383Z,12.00
2018-09-25T16:19:11.365Z,11.90
2018-09-25T16:21:45.551Z,11.90
2018-09-25T16:24:19.251Z,11.80
2018-09-25T16:26:52.910Z,11.70
2018-09-25T16:29:26.638Z,11.70
2018-09-25T16:32:00.342Z,11.60
2018-09-25T16:34:34.125Z,11.50
2018-09-25T16:37:07.807Z,11.50
2018-09-25T16:39:41.438Z,11.40
2018-09-25T16:42:15.265Z,11.30
2018-09-25T16:44:49.016Z,11.30
2018-09-25T16:47:22.771Z,11.20
2018-09-25T16:49:56.598Z,11.10
2018-09-25T16:52:30.451Z,11.00
2018-09-25T16:55:04.326Z,10.90
2018-09-25T16:57:38.207Z,10.90
2018-09-25T17:00:11.962Z,10.80
2018-09-25T17:02:45.746Z,10.70
2018-09-25T17:05:19.599Z,10.70
2018-09-25T17:07:53.270Z,10.60
2018-09-25T17:10:27.137Z,10.60
2018-09-25T17:13:00.919Z,10.50
2018-09-25T17:15:34.559Z,10.50
2018-09-25T17:18:08.379Z,10.40
2018-09-25T17:20:42.344Z,10.40
2018-09-25T17:23:16.063Z,10.40
2018-09-25T17:25:49.763Z,10.30
2018-09-25T17:28:23.602Z,10.30
2018-09-25T17:30:57.373Z,10.30
2018-09-25T17:33:31.120Z,10.30
2018-09-25T17:36:04.757Z,10.30
2018-09-25T17:38:38.418Z,10.30
2018-09-25T17:41:12.375Z,10.30
2018-09-25T17:43:46.108Z,10.30
2018-09-25T17:46:19.886Z,10.30
2018-09-25T17:48:53.699Z,10.30
2018-09-25T17:51:27.414Z,10.30
2018-09-25T17:54:01.271Z,10.30
2018-09-25T17:56:39.350Z,10.30
2018-09-25T17:59:12.971Z,10.30
2018-09-25T18:01:46.752Z,10.30
2018-09-25T18:04:20.413Z,10.30
2018-09-25T18:06:54.481Z,10.30
2018-09-25T18:09:28.570Z,10.30
2018-09-25T18:12:02.417Z,10.30
2018-09-25T18:14:36.140Z,10.30
2018-09-25T18:17:09.949Z,10.30
2018-09-25T18:19:43.718Z,10.30
2018-09-25T18:22:17.491Z,10.30
2018-09-25T18:24:51.192Z,10.30
2018-09-25T18:27:25.888Z,10.30
2018-09-25T18:29:59.695Z,10.30
2018-09-25T18:32:33.364Z,10.30
2018-09-25T18:35:07.239Z,10.30
2018-09-25T18:37:41.204Z,10.30
2018-09-25T18:40:15.524Z,10.30
2018-09-25T18:42:49.909Z,10.30
2018-09-25T18:45:23.534Z,10.30
2018-09-25T18:47:57.265Z,10.30
2018-09-25T18:50:31.055Z,10.30
2018-09-25T18:53:04.975Z,10.30
2018-09-25T18:55:38.657Z,10.30
2018-09-25T18:58:12.622Z,10.40
2018-09-25T19:00:46.446Z,10.40
2018-09-25T19:03:20.370Z,10.40
2018-09-25T19:05:54.081Z,10.40
2018-09-25T19:08:27.738Z,10.40
2018-09-25T19:11:01.382Z,10.40
2018-09-25T19:13:35.141Z,10.50
2018-09-25T19:16:09.062Z,10.50
2018-09-25T19:18:42.768Z,10.60
2018-09-25T19:21:16.603Z,10.60
2018-09-25T19:23:50.317Z,10.70
2018-09-25T19:26:23.954Z,10.70
2018-09-25T19:28:57.703Z,10.70
2018-09-25T19:31:31.571Z,10.70
2018-09-25T19:34:05.596Z,10.80
2018-09-25T19:36:39.444Z,10.80
2018-09-25T19:39:14.137Z,10.80
2018-09-25T19:41:48.020Z,10.80
2018-09-25T19:44:21.798Z,10.90
2018-09-25T19:46:55.524Z,10.90
2018-09-25T19:49:29.177Z,10.90
2018-09-25T19:52:02.919Z,10.90
2018-09-25T19:54:36.739Z,10.90
2018-09-25T19:57:10.482Z,11.00
2018-09-25T19:59:44.642Z,11.00
2018-09-25T20:02:19.517Z,11.10
2018-09-25T20:04:53.644Z,11.10
2018-09-25T20:07:27.361Z,11.10
2018-09-25T20:10:01.134Z,11.10
2018-09-25T20:12:35.058Z,11.10
2018-09-25T20:15:08.994Z,11.10
2018-09-25T20:17:42.723Z,11.10
2018-09-25T20:20:16.491Z,11.10
2018-09-25T20:22:50.194Z,11.10
2018-09-25T20:25:23.923Z,11.10
2018-09-25T20:27:57.633Z,11.10
2018-09-25T20:30:31.375Z,11.10
2018-09-25T20:33:05.114Z,11.20
2018-09-25T20:35:38.930Z,11.20
2018-09-25T20:38:12.578Z,11.20
2018-09-25T20:40:46.396Z,11.30
2018-09-25T20:43:20.139Z,11.30
2018-09-25T20:45:53.813Z,11.30
2018-09-25T20:48:27.507Z,11.30
2018-09-25T20:51:01.370Z,11.30
2018-09-25T20:53:35.145Z,11.30
2018-09-25T20:56:09.091Z,11.40
2018-09-25T20:58:42.902Z,11.40
2018-09-25T21:01:16.827Z,11.40
2018-09-25T21:03:50.726Z,11.30
2018-09-25T21:06:24.346Z,11.40
2018-09-25T21:08:58.051Z,11.40
2018-09-25T21:11:31.858Z,11.30
2018-09-25T21:14:05.665Z,11.30
2018-09-25T21:16:39.419Z,11.30
2018-09-25T21:19:13.254Z,11.20
2018-09-25T21:21:46.986Z,11.10
2018-09-25T21:24:20.691Z,11.10
2018-09-25T21:26:54.491Z,11.00
2018-09-25T21:29:28.194Z,11.00
2018-09-25T21:32:01.946Z,10.90
2018-09-25T21:34:35.739Z,10.80
2018-09-25T21:37:09.545Z,10.80
2018-09-25T21:39:43.383Z,10.70
2018-09-25T21:42:17.274Z,10.70
2018-09-25T21:44:50.910Z,10.60
2018-09-25T21:47:24.567Z,10.60
2018-09-25T21:49:58.235Z,10.70
2018-09-25T21:52:32.112Z,10.70
2018-09-25T21:55:05.811Z,10.70
2018-09-25T21:57:39.668Z,10.70
2018-09-25T22:00:13.899Z,10.70
2018-09-25T22:02:47.617Z,10.70
2018-09-25T22:05:21.282Z,10.70
2018-09-25T22:07:55.065Z,10.70
2018-09-25T22:10:28.725Z,10.70
2018-09-25T22:13:02.457Z,10.60
2018-09-25T22:15:36.153Z,10.60
2018-09-25T22:18:09.793Z,10.60
2018-09-25T22:20:43.320Z,10.50
2018-09-25T22:23:16.913Z,10.50
2018-09-25T22:25:50.658Z,10.50
2018-09-25T22:28:24.525Z,10.40
2018-09-25T22:30:58.064Z,10.40
2018-09-25T22:33:31.862Z,10.40
2018-09-25T22:36:05.657Z,10.40
2018-09-25T22:38:39.369Z,10.40
2018-09-25T22:41:13.093Z,10.40
2018-09-25T22:43:46.880Z,10.40
2018-09-25T22:46:20.682Z,10.40
2018-09-25T22:48:54.327Z,10.40
2018-09-25T22:51:28.023Z,10.50
2018-09-25T22:54:01.807Z,10.50
2018-09-25T22:56:35.581Z,10.50
2018-09-25T22:59:09.218Z,10.50
2018-09-25T23:01:42.897Z,10.50
2018-09-25T23:04:16.704Z,10.50
2018-09-25T23:06:50.300Z,10.60
2018-09-25T23:09:24.046Z,10.60
2018-09-25T23:11:57.761Z,10.60
2018-09-25T23:14:31.429Z,10.60
2018-09-25T23:17:05.160Z,10.70
2018-09-25T23:19:38.750Z,10.70
2018-09-25T23:22:12.438Z,10.70
2018-09-25T23:24:46.063Z,10.80
2018-09-25T23:27:19.802Z,10.80
2018-09-25T23:29:53.573Z,10.90
2018-09-25T23:32:27.285Z,10.90
2018-09-25T23:35:00.905Z,10.90
2018-09-25T23:37:34.598Z,10.90
2018-09-25T23:40:10.214Z,11.00
2018-09-25T23:42:48.529Z,11.00
2018-09-25T23:45:21.203Z,11.10
2018-09-25T23:47:55.253Z,11.10
2018-09-25T23:51:36.202Z,11.10
2018-09-25T23:54:10.186Z,11.10
2018-09-25T23:57:46.706Z,11.20
